Time;durP1;ratioP1;P1;durP2;ratioP2;P2;SDS_P1;SDS_P2;PMS_P1;PMS_P2;Temp;Humidity;BMP_temperature;BMP_pressure;BME280_temperature;BME280_humidity;BME280_pressure;Samples;Min_cycle;Max_cycle;Signal;HPM_P1;HPM_P2
2022/12/14 00:00:41;;;;;;;13.50;7.30;;;;;;;2.22;68.80;99712.47;5074012;28;20465;-42
2022/12/14 00:03:07;;;;;;;11.77;7.10;;;;;;;1.94;69.16;99713.34;5074234;28;20085;-42
2022/12/14 00:05:33;;;;;;;11.52;6.38;;;;;;;1.82;69.33;99704.03;5073797;28;20013;-43
2022/12/14 00:07:58;;;;;;;12.23;6.90;;;;;;;2.04;69.23;99713.28;5072398;28;20043;-42
2022/12/14 00:10:24;;;;;;;12.45;6.63;;;;;;;2.17;68.31;99715.56;5073364;28;20082;-42
2022/12/14 00:12:49;;;;;;;11.32;6.15;;;;;;;2.08;68.91;99713.81;5073477;28;20452;-42
2022/12/14 00:15:15;;;;;;;11.45;6.80;;;;;;;2.02;69.05;99724.91;5072133;28;20027;-42
2022/12/14 00:17:40;;;;;;;10.30;6.45;;;;;;;1.94;68.97;99702.88;5073413;28;20045;-42
2022/12/14 00:20:07;;;;;;;11.73;7.07;;;;;;;2.10;67.49;99720.56;5073485;28;20028;-42
2022/12/14 00:22:33;;;;;;;12.18;6.30;;;;;;;2.24;66.34;99716.59;5073575;28;20024;-42
2022/12/14 00:24:58;;;;;;;11.77;6.63;;;;;;;2.35;67.36;99716.34;5073351;28;20024;-42
2022/12/14 00:27:24;;;;;;;11.40;7.00;;;;;;;2.22;66.65;99715.91;5073279;28;20039;-42
2022/12/14 00:29:49;;;;;;;12.55;6.90;;;;;;;2.18;67.34;99717.19;5073379;28;20024;-42
2022/12/14 00:32:14;;;;;;;11.73;6.80;;;;;;;2.03;66.28;99705.56;5073523;28;20496;-42
2022/12/14 00:34:40;;;;;;;11.27;6.75;;;;;;;1.95;66.95;99715.00;5073326;28;20020;-43
2022/12/14 00:37:05;;;;;;;10.77;6.40;;;;;;;1.88;66.52;99707.88;5071676;28;20405;-42
2022/12/14 00:39:31;;;;;;;8.85;5.93;;;;;;;2.02;66.21;99703.91;5073189;28;20024;-42
2022/12/14 00:41:56;;;;;;;10.35;6.35;;;;;;;2.31;66.29;99704.50;5072774;28;20027;-43
2022/12/14 00:44:21;;;;;;;11.07;6.40;;;;;;;2.13;66.31;99694.03;5073082;28;20023;-42
2022/12/14 00:46:47;;;;;;;11.40;6.15;;;;;;;2.02;65.74;99694.25;5073169;28;20054;-42
2022/12/14 00:49:14;;;;;;;11.45;6.40;;;;;;;2.06;66.31;99700.03;5072891;28;20430;-43
2022/12/14 00:51:39;;;;;;;11.25;6.32;;;;;;;2.00;65.64;99700.59;5072811;28;20036;-42
2022/12/14 00:54:05;;;;;;;10.52;6.40;;;;;;;2.06;65.01;99706.09;5072799;28;20020;-42
2022/12/14 00:56:30;;;;;;;12.15;6.38;;;;;;;2.06;65.15;99689.53;5072829;28;20073;-42
2022/12/14 00:58:56;;;;;;;11.50;6.90;;;;;;;2.03;66.11;99700.31;5072913;28;20021;-42
2022/12/14 01:01:21;;;;;;;11.75;6.90;;;;;;;2.18;66.06;99706.69;5072672;28;20043;-42
2022/12/14 01:03:47;;;;;;;13.32;7.68;;;;;;;1.86;67.00;99691.44;5072455;28;20413;-42
2022/12/14 01:06:19;;;;;;;10.82;7.00;;;;;;;1.74;67.85;99712.63;5072741;28;20099;-42
2022/12/14 01:08:45;;;;;;;11.90;7.07;;;;;;;2.08;67.01;99714.63;5072675;28;20024;-42
2022/12/14 01:11:11;;;;;;;12.38;7.97;;;;;;;1.95;67.20;99704.50;5072263;28;20154;-42
2022/12/14 01:13:38;;;;;;;14.48;7.40;;;;;;;1.92;66.92;99715.31;5072527;28;20032;-42
2022/12/14 01:16:09;;;;;;;14.32;7.70;;;;;;;1.99;67.22;99710.28;5072382;28;20032;-42
2022/12/14 01:18:36;;;;;;;14.88;7.38;;;;;;;2.09;67.20;99700.53;5071742;28;20037;-42
2022/12/14 01:21:15;;;;;;;12.43;7.20;;;;;;;1.94;67.09;99702.88;5072423;28;20032;-42
2022/12/14 01:23:41;;;;;;;11.95;7.35;;;;;;;1.75;67.63;99713.47;5072261;28;20024;-42
2022/12/14 01:26:07;;;;;;;11.70;6.72;;;;;;;1.73;67.59;99699.66;5072075;28;20536;-42
2022/12/14 01:28:36;;;;;;;11.55;6.20;;;;;;;1.90;67.13;99709.34;5072231;28;20107;-43
2022/12/14 01:31:16;;;;;;;11.13;6.75;;;;;;;1.85;66.92;99689.81;5072301;28;20097;-43
2022/12/14 01:33:41;;;;;;;11.53;6.70;;;;;;;1.86;67.68;99700.13;5072249;28;20163;-43
2022/12/14 01:36:16;;;;;;;12.05;6.75;;;;;;;2.04;66.15;99699.34;5071869;28;20052;-42
2022/12/14 01:38:42;;;;;;;12.23;6.85;;;;;;;1.90;66.42;99693.59;5072051;28;20044;-42
2022/12/14 01:41:23;;;;;;;10.40;6.43;;;;;;;2.02;65.78;99702.13;5071408;28;20066;-42
2022/12/14 01:43:52;;;;;;;10.93;6.40;;;;;;;1.63;65.68;99702.34;5072251;28;20358;-42
2022/12/14 01:46:35;;;;;;;10.00;6.13;;;;;;;1.94;65.65;99718.59;5071545;28;20016;-42
2022/12/14 01:49:30;;;;;;;11.07;6.65;;;;;;;2.04;65.80;99715.91;5071934;28;20117;-43
2022/12/14 01:52:09;;;;;;;10.98;6.28;;;;;;;1.94;66.50;99718.59;5071662;28;20017;-43
2022/12/14 01:54:41;;;;;;;10.90;6.63;;;;;;;2.03;65.27;99721.31;5071581;28;20498;-43
2022/12/14 01:57:08;;;;;;;13.38;6.75;;;;;;;2.30;65.61;99717.78;5071598;28;20028;-43
2022/12/14 01:59:39;;;;;;;10.98;6.20;;;;;;;1.90;65.36;99713.78;5071817;28;20384;-43
2022/12/14 02:02:06;;;;;;;10.43;6.22;;;;;;;1.99;64.98;99722.59;5071235;28;20089;-43
2022/12/14 02:04:36;;;;;;;12.82;6.15;;;;;;;2.13;65.21;99714.19;5071316;28;20028;-42
2022/12/14 02:07:03;;;;;;;10.52;6.18;;;;;;;2.21;65.24;99727.41;5071481;28;20111;-42
2022/12/14 02:09:32;;;;;;;11.23;6.50;;;;;;;2.21;65.53;99726.56;5071295;28;20028;-43
2022/12/14 02:12:14;;;;;;;;;;;;;;;2.28;65.11;99720.56;5071689;28;20024;-43
2022/12/14 02:14:40;;;;;;;11.35;5.95;;;;;;;2.18;65.25;99722.44;5071478;28;20442;-41
2022/12/14 02:17:06;;;;;;;10.38;5.75;;;;;;;2.20;65.04;99715.22;5071129;28;20056;-43
2022/12/14 02:19:32;;;;;;;10.18;6.35;;;;;;;2.34;64.17;99724.38;5071428;28;20033;-43
2022/12/14 02:22:21;;;;;;;9.80;5.97;;;;;;;2.21;63.60;99724.78;5071162;28;20024;-43
2022/12/14 02:25:21;;;;;;;10.98;6.25;;;;;;;2.05;66.40;99730.69;5071233;28;20047;-43
2022/12/14 02:28:14;;;;;;;9.20;5.68;;;;;;;2.05;65.06;99732.47;5071060;28;20493;-43
2022/12/14 02:30:43;;;;;;;13.27;6.20;;;;;;;1.88;64.92;99732.31;5071088;28;20036;-42
2022/12/14 02:33:20;;;;;;;12.90;7.05;;;;;;;1.90;65.67;99726.91;5071167;28;20077;-43
2022/12/14 02:36:00;;;;;;;10.98;6.50;;;;;;;2.02;64.83;99725.75;5071178;28;20330;-43
2022/12/14 02:38:49;;;;;;;12.48;7.03;;;;;;;2.15;64.73;99727.97;5071266;28;20028;-43
2022/12/14 02:41:38;;;;;;;11.13;6.30;;;;;;;1.91;66.24;99718.06;5071052;28;20039;-42
2022/12/14 02:44:38;;;;;;;9.48;6.22;;;;;;;2.10;65.83;99731.06;5070989;28;20024;-42
2022/12/14 02:47:12;;;;;;;13.32;6.40;;;;;;;2.46;64.45;99722.38;5069447;28;20093;-42
2022/12/14 02:49:50;;;;;;;11.10;6.25;;;;;;;2.08;64.28;99716.44;5070984;28;20073;-42
2022/12/14 02:52:21;;;;;;;12.27;6.82;;;;;;;2.04;64.42;99718.53;5069676;28;20021;-42
2022/12/14 02:54:46;;;;;;;12.45;7.25;;;;;;;2.11;64.42;99716.97;5070777;28;20016;-42
2022/12/14 02:57:20;;;;;;;13.27;7.22;;;;;;;1.81;66.25;99727.78;5071167;28;20487;-42
2022/12/14 02:59:51;;;;;;;10.32;6.32;;;;;;;2.04;65.26;99728.22;5070697;28;20445;-42
2022/12/14 03:02:17;;;;;;;11.90;6.80;;;;;;;2.00;66.30;99727.69;5070503;28;20060;-42
2022/12/14 03:04:46;;;;;;;12.70;6.47;;;;;;;1.90;64.76;99721.66;5070660;28;20016;-42
2022/12/14 03:07:30;;;;;;;11.05;6.50;;;;;;;2.06;64.99;99715.78;5070757;28;20125;-42
2022/12/14 03:10:02;;;;;;;12.77;7.05;;;;;;;1.88;64.82;99716.56;5070992;28;20048;-42
2022/12/14 03:12:28;;;;;;;11.45;6.80;;;;;;;1.85;64.38;99718.69;5070449;28;20535;-42
2022/12/14 03:14:57;;;;;;;10.10;6.70;;;;;;;2.01;65.58;99713.56;5070541;28;20119;-42
2022/12/14 03:17:25;;;;;;;11.52;6.85;;;;;;;1.90;65.37;99719.84;5070444;28;20049;-42
2022/12/14 03:20:17;;;;;;;11.23;6.88;;;;;;;2.07;65.21;99707.72;5070421;28;20020;-42
2022/12/14 03:23:09;;;;;;;12.05;6.93;;;;;;;2.01;65.20;99708.31;5065591;28;20048;-43
2022/12/14 03:25:47;;;;;;;12.20;7.07;;;;;;;1.85;65.33;99705.56;5070138;28;20115;-42
2022/12/14 03:28:28;;;;;;;11.38;6.53;;;;;;;1.87;65.48;99706.22;5070515;28;20091;-42
2022/12/14 03:31:08;;;;;;;13.02;7.40;;;;;;;1.74;65.76;99717.88;5070495;28;20083;-42
2022/12/14 03:33:36;;;;;;;12.83;7.53;;;;;;;1.92;65.19;99711.84;5070797;28;20405;-42
2022/12/14 03:36:07;;;;;;;11.85;7.30;;;;;;;1.68;64.67;99705.38;5070544;28;20669;-42
2022/12/14 03:38:40;;;;;;;12.15;6.75;;;;;;;1.69;64.65;99711.44;5070178;28;20372;-42
2022/12/14 03:41:08;;;;;;;11.85;7.25;;;;;;;1.62;65.10;99712.97;5070043;28;20024;-42
2022/12/14 03:43:41;;;;;;;12.70;7.47;;;;;;;1.90;65.51;99732.16;5068715;28;20446;-42
2022/12/14 03:46:16;;;;;;;13.13;6.85;;;;;;;2.11;66.05;99726.63;5070050;28;20023;-42
2022/12/14 03:48:52;;;;;;;11.93;6.45;;;;;;;1.70;64.44;99706.03;5070308;28;20028;-42
2022/12/14 03:51:25;;;;;;;12.32;7.05;;;;;;;1.94;65.28;99729.09;5070219;28;20142;-42
2022/12/14 03:54:08;;;;;;;11.73;7.03;;;;;;;2.29;64.02;99721.41;5070414;28;20025;-44
2022/12/14 03:56:49;;;;;;;11.10;6.25;;;;;;;2.03;64.71;99716.88;5071141;28;20036;-44
2022/12/14 03:59:26;;;;;;;12.93;7.60;;;;;;;1.77;65.50;99719.38;5070001;28;20036;-42
2022/12/14 04:01:55;;;;;;;11.63;7.25;;;;;;;1.92;65.42;99723.19;5068419;28;20425;-42
2022/12/14 04:04:25;;;;;;;;;;;;;;;1.70;66.41;99719.16;5073601;28;20029;-42
2022/12/14 04:07:06;;;;;;;13.35;7.57;;;;;;;2.07;65.36;99717.41;5073571;28;19908;-42
2022/12/14 04:09:34;;;;;;;;;;;;;;;2.14;66.25;99713.22;5073902;28;20032;-42
2022/12/14 04:20:52;;;;;;;12.68;7.13;;;;;;;1.91;65.67;99700.53;5073427;28;20361;-42
2022/12/14 04:26:18;;;;;;;13.30;7.57;;;;;;;1.73;66.73;99703.13;5073448;28;20166;-43
2022/12/14 04:31:49;;;;;;;12.55;7.13;;;;;;;1.99;66.62;99701.59;5073307;28;20149;-42
2022/12/14 04:34:17;;;;;;;13.50;7.63;;;;;;;2.22;66.22;99702.78;5072674;28;20032;-43
2022/12/14 04:36:54;;;;;;;12.38;7.20;;;;;;;2.28;66.10;99707.41;5072322;28;20036;-43
2022/12/14 04:39:26;;;;;;;12.35;7.35;;;;;;;2.17;65.75;99702.44;5073393;28;20032;-42
2022/12/14 04:41:58;;;;;;;11.15;6.70;;;;;;;2.20;65.08;99702.09;5072823;28;20032;-45
2022/12/14 04:44:36;;;;;;;12.93;7.18;;;;;;;1.81;65.67;99697.16;5072952;28;20031;-44
2022/12/14 04:47:05;;;;;;;10.63;6.47;;;;;;;1.88;66.43;99682.44;5072597;28;20032;-43
2022/12/14 04:49:38;;;;;;;15.13;8.23;;;;;;;2.22;66.37;99694.09;5072827;28;20028;-43
2022/12/14 04:52:11;;;;;;;10.85;6.97;;;;;;;1.98;66.35;99700.78;5072918;28;20129;-43
2022/12/14 04:54:58;;;;;;;12.30;7.07;;;;;;;1.91;66.78;99708.41;5072818;28;20373;-45
2022/12/14 04:57:49;;;;;;;12.82;7.20;;;;;;;1.92;67.33;99717.94;5072469;28;20029;-45
2022/12/14 05:00:15;;;;;;;15.25;7.22;;;;;;;2.07;67.42;99720.84;5072473;28;20029;-44
2022/12/14 05:02:49;;;;;;;13.35;7.05;;;;;;;2.13;68.39;99715.03;5072549;28;20078;-45
2022/12/14 05:05:27;;;;;;;11.27;6.90;;;;;;;1.67;68.62;99714.19;5072780;28;20020;-45
2022/12/14 05:08:10;;;;;;;12.20;7.30;;;;;;;1.76;69.00;99721.19;5072404;28;20024;-45
2022/12/14 05:10:41;;;;;;;12.32;6.75;;;;;;;1.83;68.53;99726.69;5072138;28;20077;-46
2022/12/14 05:13:19;;;;;;;101.88;44.60;;;;;;;2.20;68.12;99717.03;5072011;28;20033;-45
2022/12/14 05:15:49;;;;;;;14.13;8.23;;;;;;;2.11;68.93;99729.25;5071358;28;20445;-44
2022/12/14 05:18:16;;;;;;;14.05;7.88;;;;;;;1.95;68.34;99724.69;5071863;28;20056;-43
2022/12/14 05:20:41;;;;;;;12.98;7.65;;;;;;;2.09;68.45;99729.41;5072024;28;20106;-44
2022/12/14 05:23:07;;;;;;;13.70;7.97;;;;;;;1.69;70.65;99725.38;5071941;28;20025;-45
2022/12/14 05:25:32;;;;;;;13.77;7.20;;;;;;;1.92;70.48;99727.59;5071908;28;20030;-45
2022/12/14 05:27:58;;;;;;;13.88;7.85;;;;;;;1.74;71.61;99723.13;5071532;28;20443;-42
2022/12/14 05:30:23;;;;;;;13.57;7.78;;;;;;;1.93;70.47;99732.69;5065451;28;20511;-44
2022/12/14 05:32:49;;;;;;;21.70;10.02;;;;;;;2.11;73.54;99731.88;5053785;28;20071;-44
2022/12/14 05:35:15;;;;;;;24.08;11.70;;;;;;;3.66;83.17;99736.56;5051793;28;20116;-46
2022/12/14 05:37:41;;;;;;;25.42;13.73;;;;;;;5.36;77.46;99733.31;5051627;28;20025;-44
2022/12/14 05:40:08;;;;;;;20.30;9.30;;;;;;;6.35;69.24;99725.75;5051913;28;20073;-45
2022/12/14 05:42:34;;;;;;;19.63;10.90;;;;;;;6.89;60.96;99734.56;5055832;28;20032;-43
2022/12/14 05:44:59;;;;;;;22.42;11.25;;;;;;;6.57;56.93;99736.50;5049300;28;20048;-44
2022/12/14 05:47:26;;;;;;;19.65;10.27;;;;;;;5.54;58.13;99742.81;5049521;28;20031;-45
2022/12/14 05:49:51;;;;;;;17.15;10.10;;;;;;;4.24;60.48;99735.72;5049203;28;20498;-42
2022/12/14 05:52:17;;;;;;;18.00;10.73;;;;;;;3.67;63.85;99748.72;5048563;28;20036;-42
2022/12/14 05:54:42;;;;;;;23.23;14.15;;;;;;;3.49;66.62;99762.81;5049283;28;20028;-43
2022/12/14 05:57:08;;;;;;;20.85;11.68;;;;;;;3.39;64.95;99758.63;5049624;28;20442;-44
2022/12/14 05:59:33;;;;;;;17.75;9.75;;;;;;;2.96;64.53;99766.44;5049165;28;20481;-43
2022/12/14 06:01:59;;;;;;;15.65;9.73;;;;;;;2.66;66.68;99771.13;5048164;28;20025;-43
2022/12/14 06:04:25;;;;;;;17.65;9.68;;;;;;;2.80;66.51;99755.78;5048256;28;20029;-43
2022/12/14 06:06:50;;;;;;;50.70;22.10;;;;;;;2.63;67.05;99758.31;5048674;28;20057;-44
2022/12/14 06:09:16;;;;;;;19.42;10.02;;;;;;;2.53;68.59;99760.16;5049009;28;20469;-43
2022/12/14 06:11:43;;;;;;;19.38;8.30;;;;;;;2.44;66.98;99758.47;5059827;28;20020;-43
2022/12/14 06:14:10;;;;;;;16.27;8.73;;;;;;;2.34;68.13;99759.38;5069691;28;20020;-42
2022/12/14 06:16:39;;;;;;;13.45;8.13;;;;;;;2.48;67.35;99771.16;5070171;28;20055;-44
2022/12/14 06:19:04;;;;;;;13.45;7.28;;;;;;;2.41;66.42;99769.28;5070281;28;20457;-47
2022/12/14 06:21:32;;;;;;;16.77;8.57;;;;;;;2.56;67.06;99772.19;5070293;28;20031;-44
2022/12/14 06:23:59;;;;;;;15.80;8.13;;;;;;;2.42;66.14;99778.78;5070482;28;20139;-44
2022/12/14 06:26:25;;;;;;;14.55;7.75;;;;;;;2.17;66.95;99777.72;5070068;28;20024;-45
2022/12/14 06:28:51;;;;;;;15.25;8.00;;;;;;;2.30;68.04;99763.28;5069914;28;20488;-44
2022/12/14 06:31:19;;;;;;;14.43;7.65;;;;;;;2.51;66.15;99762.97;5070210;28;20025;-45
2022/12/14 06:33:45;;;;;;;15.15;7.72;;;;;;;2.28;67.30;99759.94;5070174;28;20056;-44
2022/12/14 06:36:38;;;;;;;16.77;8.10;;;;;;;2.48;67.86;99772.94;5070187;28;20052;-43
2022/12/14 06:39:11;;;;;;;21.63;8.35;;;;;;;2.57;66.03;99773.84;5068112;28;20040;-43
2022/12/14 06:41:37;;;;;;;18.92;9.73;;;;;;;2.39;68.25;99773.84;5070174;28;20480;-44
2022/12/14 06:44:07;;;;;;;17.98;8.70;;;;;;;2.40;66.78;99783.38;5069851;28;20029;-45
2022/12/14 06:46:33;;;;;;;15.75;8.68;;;;;;;2.51;67.44;99784.00;5070366;28;20103;-45
2022/12/14 06:48:59;;;;;;;14.27;8.30;;;;;;;2.86;66.87;99794.63;5070224;28;20028;-45
2022/12/14 06:51:24;;;;;;;18.27;9.25;;;;;;;3.00;66.10;99799.31;5070156;28;20032;-44
2022/12/14 06:53:55;;;;;;;17.58;8.75;;;;;;;3.06;64.54;99793.44;5070147;28;20041;-45
2022/12/14 06:56:22;;;;;;;17.58;8.30;;;;;;;2.97;64.67;99796.16;5070217;28;20111;-44
2022/12/14 06:58:48;;;;;;;14.65;8.50;;;;;;;3.02;64.38;99791.28;5070252;28;20021;-46
2022/12/14 07:01:19;;;;;;;12.20;8.32;;;;;;;3.02;63.96;99799.19;5069766;28;20349;-44
2022/12/14 07:03:50;;;;;;;15.15;8.90;;;;;;;3.02;63.59;99807.06;5070374;28;20051;-44
2022/12/14 07:06:16;;;;;;;16.17;8.90;;;;;;;2.93;63.85;99799.13;5069978;28;20100;-45
2022/12/14 07:08:41;;;;;;;14.40;8.60;;;;;;;3.08;63.30;99803.81;5069764;28;20032;-43
2022/12/14 07:11:10;;;;;;;17.38;8.90;;;;;;;3.61;61.04;99809.91;5069673;28;20024;-43
2022/12/14 07:13:36;;;;;;;17.75;8.95;;;;;;;4.07;58.06;99811.25;5069652;28;20020;-44
2022/12/14 07:16:03;;;;;;;19.48;9.13;;;;;;;4.24;57.38;99812.13;5069893;28;20100;-47
2022/12/14 07:18:29;;;;;;;20.90;9.63;;;;;;;4.76;55.95;99803.16;5069579;28;20044;-43
2022/12/14 07:21:07;;;;;;;21.38;9.38;;;;;;;5.09;54.19;99809.22;5069805;28;20392;-43
2022/12/14 07:23:36;;;;;;;14.23;8.23;;;;;;;5.71;53.49;99807.78;5069434;28;20082;-43
2022/12/14 07:26:04;;;;;;;13.27;7.80;;;;;;;5.46;50.40;99796.47;5069143;28;20013;-42
2022/12/14 07:28:30;;;;;;;15.60;8.90;;;;;;;5.38;50.67;99780.66;5068888;28;20404;-43
2022/12/14 07:30:57;;;;;;;12.00;7.53;;;;;;;5.32;50.70;99783.97;5068971;28;20025;-43
2022/12/14 07:33:23;;;;;;;13.90;7.00;;;;;;;5.15;50.98;99785.81;5069010;28;20467;-44
2022/12/14 07:35:49;;;;;;;10.45;6.70;;;;;;;5.40;48.68;99784.78;5068873;28;20029;-43
2022/12/14 07:38:15;;;;;;;11.40;7.05;;;;;;;5.34;49.85;99784.63;5070889;28;20020;-43
2022/12/14 07:40:41;;;;;;;9.32;6.38;;;;;;;5.79;49.15;99791.09;5073307;28;20024;-44
2022/12/14 07:43:07;;;;;;;15.88;6.88;;;;;;;5.45;48.91;99798.28;5073310;28;20408;-45
2022/12/14 07:45:32;;;;;;;10.65;6.30;;;;;;;5.41;49.51;99790.91;5073293;28;20028;-44
2022/12/14 07:47:58;;;;;;;10.45;6.32;;;;;;;4.83;51.31;99790.13;5072977;28;20465;-43
2022/12/14 07:50:23;;;;;;;10.88;7.07;;;;;;;4.73;50.73;99789.47;5072742;28;20021;-43
2022/12/14 07:52:49;;;;;;;11.50;6.40;;;;;;;4.55;51.52;99800.16;5072937;28;20020;-43
2022/12/14 07:55:14;;;;;;;10.57;6.82;;;;;;;4.21;53.29;99798.47;5072843;28;20016;-42
2022/12/14 07:57:39;;;;;;;11.00;6.63;;;;;;;4.09;53.60;99795.28;5073102;28;20016;-44
2022/12/14 08:00:05;;;;;;;10.98;6.90;;;;;;;4.36;53.82;99809.19;5073146;28;20074;-43
2022/12/14 08:02:31;;;;;;;12.35;7.13;;;;;;;4.15;53.50;99812.25;5072513;28;20017;-43
2022/12/14 08:04:56;;;;;;;10.80;6.95;;;;;;;3.55;56.66;99823.69;5073087;28;20370;-44
2022/12/14 08:07:22;;;;;;;13.35;6.90;;;;;;;3.67;55.91;99814.53;5072308;28;20031;-44
2022/12/14 08:09:47;;;;;;;12.10;7.28;;;;;;;4.24;55.12;99830.56;5072207;28;20090;-43
2022/12/14 08:12:13;;;;;;;10.27;6.65;;;;;;;4.27;55.89;99830.25;5072260;28;20039;-43
2022/12/14 08:14:38;;;;;;;12.38;7.00;;;;;;;4.57;55.18;99825.38;5072705;28;20074;-43
2022/12/14 08:17:03;;;;;;;12.88;7.82;;;;;;;4.78;53.65;99829.34;5072059;28;20048;-43
2022/12/14 08:19:29;;;;;;;12.50;7.43;;;;;;;4.37;54.43;99822.19;5072583;28;20021;-44
2022/12/14 08:21:54;;;;;;;13.90;7.30;;;;;;;4.49;53.71;99814.81;5072271;28;20055;-43
2022/12/14 08:24:19;;;;;;;12.07;6.90;;;;;;;4.84;53.41;99820.78;5072108;28;20469;-44
2022/12/14 08:26:45;;;;;;;13.15;6.78;;;;;;;4.50;53.04;99821.72;5072377;28;20056;-43
2022/12/14 08:29:13;;;;;;;11.70;6.97;;;;;;;4.99;51.53;99815.66;5072577;28;20048;-43
2022/12/14 08:31:39;;;;;;;11.13;6.85;;;;;;;5.63;51.70;99827.09;5072634;28;20027;-45
2022/12/14 08:34:05;;;;;;;12.48;6.88;;;;;;;5.28;51.47;99825.72;5072675;28;20028;-43
2022/12/14 08:36:33;;;;;;;10.95;6.75;;;;;;;5.24;51.24;99829.69;5072997;28;20397;-43
2022/12/14 08:39:00;;;;;;;11.68;6.45;;;;;;;4.55;52.90;99832.63;5072990;28;20031;-43
2022/12/14 08:41:26;;;;;;;10.80;6.90;;;;;;;5.11;52.12;99817.00;5072661;28;20020;-47
2022/12/14 08:43:55;;;;;;;10.65;6.82;;;;;;;5.47;51.38;99832.44;5072665;28;20024;-44
2022/12/14 08:46:21;;;;;;;10.80;6.90;;;;;;;4.95;51.57;99824.91;5072438;28;20305;-44
2022/12/14 08:48:49;;;;;;;10.35;6.55;;;;;;;4.73;52.34;99811.38;5071991;28;20024;-43
2022/12/14 08:51:14;;;;;;;10.77;7.20;;;;;;;5.12;51.97;99821.25;5072215;28;20024;-43
2022/12/14 08:53:40;;;;;;;11.00;6.75;;;;;;;6.28;49.03;99808.56;5071905;28;20393;-43
2022/12/14 08:56:11;;;;;;;10.02;6.20;;;;;;;6.05;48.42;99825.19;5072015;28;20032;-44
2022/12/14 08:58:38;;;;;;;9.82;6.25;;;;;;;5.77;49.03;99825.59;5072214;28;20082;-43
2022/12/14 09:01:12;;;;;;;12.73;7.28;;;;;;;5.67;48.96;99819.69;5072735;28;20480;-42
2022/12/14 09:03:37;;;;;;;9.32;6.22;;;;;;;5.88;49.43;99813.81;5072312;28;20107;-43
2022/12/14 09:06:04;;;;;;;11.27;6.35;;;;;;;7.13;46.96;99812.91;5071925;28;20099;-43
2022/12/14 09:08:30;;;;;;;10.80;6.30;;;;;;;5.82;49.31;99799.47;5072285;28;20036;-43
2022/12/14 09:10:56;;;;;;;12.30;7.22;;;;;;;6.10;47.94;99807.00;5072150;28;20009;-43
2022/12/14 09:13:21;;;;;;;9.73;6.30;;;;;;;5.83;48.97;99806.44;5071935;28;20573;-42
2022/12/14 09:16:07;;;;;;;13.15;7.10;;;;;;;6.03;48.72;99804.22;5072058;28;20461;-43
2022/12/14 09:18:34;;;;;;;13.90;7.05;;;;;;;7.24;47.04;99799.25;5071489;28;20060;-43
2022/12/14 09:21:00;;;;;;;10.95;6.55;;;;;;;7.16;46.14;99812.53;5072390;28;20108;-43
2022/12/14 09:23:27;;;;;;;11.02;7.07;;;;;;;6.57;47.42;99802.63;5071793;28;20094;-43
2022/12/14 09:26:02;;;;;;;9.70;6.78;;;;;;;6.74;47.39;99792.72;5071713;28;20028;-44
2022/12/14 09:28:28;;;;;;;10.18;6.65;;;;;;;6.82;45.67;99776.81;5071605;28;20484;-44
2022/12/14 09:30:56;;;;;;;11.02;6.68;;;;;;;7.30;45.21;99772.03;5070199;28;20046;-43
2022/12/14 09:33:22;;;;;;;11.82;7.00;;;;;;;6.39;47.49;99764.03;5070639;28;20202;-43
2022/12/14 09:35:48;;;;;;;11.10;7.20;;;;;;;6.31;48.35;99753.53;5071328;28;20034;-42
2022/12/14 09:38:13;;;;;;;11.35;7.38;;;;;;;6.15;48.33;99730.69;5071254;28;20099;-43
2022/12/14 09:40:45;;;;;;;11.10;7.18;;;;;;;6.76;48.03;99741.31;5071316;28;20044;-42
2022/12/14 09:43:28;;;;;;;13.43;7.80;;;;;;;7.60;47.76;99748.22;5070755;28;20040;-44
2022/12/14 09:46:05;;;;;;;10.32;6.63;;;;;;;7.14;46.81;99746.56;5071139;28;20031;-43
2022/12/14 09:48:31;;;;;;;10.23;6.80;;;;;;;6.57;47.58;99739.97;5071412;28;20024;-43
2022/12/14 09:50:57;;;;;;;11.50;7.38;;;;;;;6.62;48.04;99742.88;5071014;28;20140;-43
2022/12/14 09:53:23;;;;;;;10.52;7.10;;;;;;;5.91;49.06;99746.66;5070967;28;20028;-43
2022/12/14 09:55:53;;;;;;;11.90;7.20;;;;;;;6.21;49.29;99742.38;5071052;28;20594;-43
2022/12/14 09:58:20;;;;;;;10.50;7.38;;;;;;;6.47;48.66;99734.09;5071104;28;20032;-43
2022/12/14 10:01:15;;;;;;;12.55;7.22;;;;;;;6.93;48.81;99731.41;5070601;28;20116;-43
2022/12/14 10:04:06;;;;;;;13.82;6.85;;;;;;;6.31;48.78;99742.97;5061906;28;20040;-43
2022/12/14 10:06:43;;;;;;;10.27;6.63;;;;;;;5.64;50.69;99738.19;5069382;28;20085;-43
2022/12/14 10:09:18;;;;;;;11.02;7.15;;;;;;;6.29;49.25;99720.34;5070643;28;20041;-45
2022/12/14 10:12:08;;;;;;;11.40;7.13;;;;;;;7.08;47.66;99722.66;5070400;28;20024;-43
2022/12/14 10:15:00;;;;;;;11.02;7.20;;;;;;;6.81;49.03;99724.88;5070912;28;20054;-43
2022/12/14 10:17:52;;;;;;;12.15;7.35;;;;;;;6.33;48.85;99727.75;5068832;28;20135;-43
2022/12/14 10:20:27;;;;;;;10.20;6.18;;;;;;;5.68;50.88;99737.66;5051183;28;20045;-43
2022/12/14 10:22:52;;;;;;;10.65;7.28;;;;;;;6.56;49.32;99740.13;5070623;28;20073;-44
2022/12/14 10:25:28;;;;;;;11.85;7.10;;;;;;;7.04;47.88;99743.34;5070396;28;20020;-44
2022/12/14 10:28:02;;;;;;;10.70;6.85;;;;;;;6.60;49.91;99728.19;5070649;28;20035;-44
2022/12/14 10:30:28;;;;;;;11.25;6.88;;;;;;;7.14;48.48;99743.09;5070389;28;20024;-44
2022/12/14 10:33:30;;;;;;;11.63;7.10;;;;;;;7.32;46.98;99740.91;5069765;28;20032;-43
2022/12/14 10:35:55;;;;;;;;;;;;;;;7.79;46.73;99726.44;5048993;28;20084;-43
2022/12/14 10:38:28;;;;;;;10.95;7.25;;;;;;;8.16;46.69;99721.16;5070397;28;19909;-42
2022/12/14 10:41:01;;;;;;;14.68;7.25;;;;;;;7.72;45.90;99720.25;5070326;28;20032;-43
2022/12/14 10:43:46;;;;;;;11.50;7.20;;;;;;;7.90;46.06;99719.03;5070195;28;20088;-44
2022/12/14 10:46:19;;;;;;;12.40;7.70;;;;;;;7.97;46.29;99704.03;5070182;28;20464;-44
2022/12/14 10:49:08;;;;;;;9.77;6.78;;;;;;;8.18;45.63;99695.28;5070226;28;20074;-44
2022/12/14 10:51:54;;;;;;;12.75;7.30;;;;;;;7.85;45.44;99679.03;5064499;28;20036;-46
2022/12/14 10:54:23;;;;;;;14.65;8.10;;;;;;;7.83;46.05;99680.03;5062499;28;20067;-45
2022/12/14 10:56:49;;;;;;;14.15;7.90;;;;;;;7.79;46.19;99668.16;5070226;28;20476;-43
2022/12/14 10:59:25;;;;;;;13.40;8.80;;;;;;;7.85;46.97;99665.78;5070513;28;20083;-44
2022/12/14 11:01:58;;;;;;;12.30;7.95;;;;;;;8.75;44.51;99662.53;5070215;28;20029;-42
2022/12/14 11:04:29;;;;;;;12.23;7.00;;;;;;;8.15;44.54;99669.16;5069975;28;20024;-45
2022/12/14 11:06:57;;;;;;;11.60;7.10;;;;;;;7.94;44.61;99677.88;5069834;28;20165;-44
2022/12/14 11:09:24;;;;;;;12.07;7.40;;;;;;;7.88;45.14;99674.19;5069741;28;20033;-45
2022/12/14 11:11:57;;;;;;;10.00;6.60;;;;;;;7.56;45.78;99662.22;5069788;28;20107;-44
2022/12/14 11:14:23;;;;;;;10.55;6.65;;;;;;;8.26;45.09;99654.56;5073193;28;20033;-44
2022/12/14 11:16:48;;;;;;;9.48;6.72;;;;;;;8.01;44.93;99652.28;5073952;28;20068;-43
2022/12/14 11:19:17;;;;;;;13.35;7.50;;;;;;;7.08;47.54;99646.72;5074107;28;20482;-44
2022/12/14 11:21:43;;;;;;;10.60;6.60;;;;;;;6.89;47.34;99640.13;5073618;28;20032;-44
2022/12/14 11:24:24;;;;;;;11.38;6.93;;;;;;;7.39;45.61;99637.78;5073871;28;20086;-43
2022/12/14 11:26:53;;;;;;;17.58;7.38;;;;;;;7.15;47.07;99628.28;5073808;28;20048;-43
2022/12/14 11:29:23;;;;;;;9.20;6.15;;;;;;;6.74;47.20;99637.50;5073725;28;20032;-45
2022/12/14 11:31:52;;;;;;;11.93;6.85;;;;;;;6.79;48.59;99636.97;5073603;28;20071;-43
2022/12/14 11:34:37;;;;;;;12.50;6.75;;;;;;;6.87;48.66;99639.50;5073973;28;20039;-44
2022/12/14 11:37:22;;;;;;;10.25;6.80;;;;;;;6.82;48.62;99642.72;5073862;28;20028;-44
2022/12/14 11:39:59;;;;;;;13.32;7.20;;;;;;;6.75;49.30;99631.19;5073307;28;20411;-43
2022/12/14 11:42:26;;;;;;;12.82;6.68;;;;;;;7.08;47.36;99632.66;5073850;28;20416;-44
2022/12/14 11:44:51;;;;;;;13.05;6.90;;;;;;;7.36;47.16;99625.69;5074327;28;20060;-45
2022/12/14 11:47:19;;;;;;;12.13;7.13;;;;;;;7.57;47.52;99624.91;5073739;28;20052;-45
2022/12/14 11:49:48;;;;;;;11.20;6.85;;;;;;;7.70;47.51;99626.91;5073971;28;20033;-44
2022/12/14 11:52:20;;;;;;;12.65;6.90;;;;;;;7.14;47.55;99627.47;5073526;28;20032;-45
2022/12/14 11:55:13;;;;;;;9.23;6.47;;;;;;;8.15;45.36;99622.25;5073472;28;20055;-44
2022/12/14 11:57:44;;;;;;;12.75;6.82;;;;;;;7.86;46.02;99620.53;5067831;28;20461;-44
2022/12/14 12:00:33;;;;;;;11.82;6.80;;;;;;;7.12;47.52;99628.66;5073400;28;20024;-43
2022/12/14 12:03:12;;;;;;;9.93;6.18;;;;;;;7.04;47.41;99622.47;5052652;28;20510;-45
2022/12/14 12:05:40;;;;;;;13.05;6.22;;;;;;;7.57;46.77;99610.88;5073260;28;20027;-46